Aeroporto :
LOGIN :

Iscrizione | Disclaimer

   EN    FR    IT 

 










Sommario :    VFR   VFR Marginale   IFR   IFR Intensivo   IFR Molto Intensivo
Visibilità : 
Base nubi : 
>= 8 km
>= 3000ft
5 / 8 km
1000 / 3000 ft
1500m / 5 km
500 / 1000 ft
800 / 1500m
200 / 500 ft
< 800m
< 200 ft
Simboli :   Temporali  Nebbia  Neve Forte  Precipitazioni Forti  Vento > 20 kt
SIGMETs :   Varie  Temporali  Ghiacco  Turbolenza  Onda orograficha  Ceneri Vulcaniche






- Altitudine del aeroporto : 184 ft
- Codice IATA : BRU


EBBR - Bruxelles

ULTIMO METAR :
  • 211720Z VRB02KT 9999 -RA FEW028 16/14 Q1007 NOSIG

METARs OBSOLETI :
  • 211650Z 00000KT 9000 -RA FEW025 16/14 Q1007 NOSIG
  • 211620Z VRB01KT 9999 -RA NSC 16/14 Q1007 NOSIG
  • 211550Z VRB01KT 9999 -RA FEW009 16/14 Q1007 NOSIG
  • 211520Z 32003KT 270V360 9999 -RA FEW009 16/15 Q1007 NOSIG
  • 211450Z 01003KT 9999 -RA FEW009 16/15 Q1008 NOSIG
  • 211420Z 32003KT 280V020 9999 -RA FEW009 16/14 Q1008 NOSIG
  • 211350Z 29003KT 250V320 9999 -RA FEW030 16/14 Q1008 NOSIG
  • 211320Z 28004KT 9999 -RA FEW030 17/14 Q1008 NOSIG
  • 211250Z 26003KT 230V300 9999 -RA FEW030 17/14 Q1008 NOSIG

TAF TAF EBBR
Valido dal 21 a 18 ore il 23 a 00 ore UTC


211710Z 2118/2224 30004KT 9000 -RA SCT020
PROB30
TEMPO 2118/2121 4000 RA SHRA SCT008 BKN014
TEMPO 2121/2208 BKN008
PROB40
TEMPO 2200/2205 2500 BR BKN004
BECMG 2205/2207 24010KT
PROB30
TEMPO 2212/2216 4500 SHRA SCT030CB



MetMap, La meteo Aeronautica in un colpo d'occhio ! - Copyright ORBIFLY Dicembre 2007 - Disclaimer

ORBIFLY MET'MAP TEAM :

Programmazione e sviluppo : Alexandra Zaïnal
Concezione : Baudouin d'Aumeries
Supporto tecnico e logistico : Manuel Goepfert
Aiuto : Marc-Olivier Méhu
Aiuto per la traduzione : Arnaldo La Scala




FONTI E CREDITI :

   NOAA